Atchison, Kansas
Current Conditions -  °F | °C
As of 2:53 AM on Wednesday 26 Nov 2014 (Local Time) from KSTJ Reporting Station
Light Snow Light Snow  
Wind Chill: 28°   Ceiling: 2000
Heat Index: 37°   Visibility: 9mi
Dew Point: 31°   Wind: 14mph
Humidity: 79%   Direction: 210°SSW
Pressure: 29.94"   Gusts: 23mph
Location:  39.56°N, 95.13°W
Report Text: KSTJ 260853Z AUTO 21012G20KT 9SM -SN OVC020 03/M01 A2994 RMK AO2 PK WND 21027/0831 RAB21E45SNB45 SLP142 P0000 60000 T00281006 55005
Loading
Personal Weather Stations






























Interactive Weather Map New forecast layout! Learn more

10-Day Weather Forecast

Advertisements
Track Severe Weather on mobile